Time;durP1;ratioP1;P1;durP2;ratioP2;P2;SDS_P1;SDS_P2;PMS_P1;PMS_P2;Temp;Humidity;BMP_temperature;BMP_pressure;BME280_temperature;BME280_humidity;BME280_pressure;Samples;Min_cycle;Max_cycle;Signal;HPM_P1;HPM_P2
2023/07/05 00:02:02;;;;;;;1.20;0.60;;;20.90;97.50;;;;;;5139108;27;20426;-53
2023/07/05 00:04:29;;;;;;;0.90;0.50;;;20.80;99.90;;;;;;5139527;27;20414;-54
2023/07/05 00:06:56;;;;;;;1.70;0.50;;;20.80;99.90;;;;;;5139538;27;20425;-53
2023/07/05 00:09:23;;;;;;;1.60;0.60;;;20.80;99.90;;;;;;5139084;27;20872;-52
2023/07/05 00:11:50;;;;;;;1.10;0.60;;;20.80;99.90;;;;;;5139587;27;20426;-50
2023/07/05 00:14:17;;;;;;;1.20;0.50;;;20.80;99.90;;;;;;5139209;27;20545;-55
2023/07/05 00:16:44;;;;;;;0.80;0.50;;;20.90;99.90;;;;;;5139096;27;20417;-53
2023/07/05 00:19:13;;;;;;;0.80;0.50;;;20.80;99.90;;;;;;5139077;27;20421;-53
2023/07/05 00:21:40;;;;;;;0.90;0.50;;;20.80;99.90;;;;;;5138866;27;20471;-53
2023/07/05 00:24:07;;;;;;;1.58;0.50;;;20.70;99.90;;;;;;5138926;27;20450;-52
2023/07/05 00:26:34;;;;;;;0.85;0.60;;;20.60;99.90;;;;;;5138638;27;20490;-52
2023/07/05 00:29:01;;;;;;;0.70;0.50;;;20.60;99.90;;;;;;5137364;27;20442;-50
2023/07/05 00:31:28;;;;;;;0.80;0.60;;;20.50;99.90;;;;;;5137820;27;20850;-53
2023/07/05 00:33:55;;;;;;;1.20;0.50;;;20.40;99.90;;;;;;5138832;27;20426;-54
2023/07/05 00:36:23;;;;;;;0.90;0.50;;;20.30;99.90;;;;;;5138948;27;20434;-54
2023/07/05 00:38:50;;;;;;;0.90;0.60;;;20.30;99.90;;;;;;5138896;27;20459;-51
2023/07/05 00:41:18;;;;;;;0.80;0.50;;;20.20;1.00;;;;;;5139156;27;20515;-49
2023/07/05 00:43:48;;;;;;;1.20;0.50;;;20.30;1.00;;;;;;5138730;27;20422;-53
2023/07/05 00:46:19;;;;;;;1.20;0.60;;;20.30;99.90;;;;;;5138401;27;20876;-54
2023/07/05 00:48:53;;;;;;;1.10;0.50;;;20.40;99.90;;;;;;5138028;27;20616;-57
2023/07/05 00:51:26;;;;;;;0.90;0.50;;;20.40;99.90;;;;;;5139176;27;20462;-54
2023/07/05 01:02:06;;;;;;;1.20;0.60;;;20.10;1.00;;;;;;5135917;27;20814;-53
2023/07/05 01:04:34;;;;;;;1.33;0.43;;;20.20;1.00;;;;;;5137956;27;20424;-53
2023/07/05 01:07:03;;;;;;;0.80;0.50;;;20.10;1.00;;;;;;5138128;27;20513;-54
2023/07/05 01:09:31;;;;;;;0.80;0.53;;;20.20;1.00;;;;;;5137614;27;20714;-53
2023/07/05 01:12:06;;;;;;;0.82;0.50;;;20.30;1.00;;;;;;5137996;27;20425;-51
2023/07/05 01:14:38;;;;;;;1.10;0.50;;;20.30;1.00;;;;;;5136814;27;20436;-53
2023/07/05 01:17:15;;;;;;;0.70;0.40;;;20.20;1.00;;;;;;5137066;27;20466;-53
2023/07/05 01:20:09;;;;;;;1.50;0.40;;;20.10;1.00;;;;;;5136487;27;20470;-51
2023/07/05 01:23:08;;;;;;;1.10;0.50;;;20.20;99.90;;;;;;5137565;27;20426;-53
2023/07/05 01:26:00;;;;;;;0.90;0.50;;;20.00;99.90;;;;;;5137814;27;20505;-50
2023/07/05 01:28:47;;;;;;;1.40;0.40;;;19.80;99.90;;;;;;5136495;27;20418;-51
2023/07/05 01:31:48;;;;;;;0.80;0.50;;;19.70;99.90;;;;;;5138170;27;20720;-49
2023/07/05 01:34:23;;;;;;;0.80;0.45;;;19.70;99.90;;;;;;5117010;27;20730;-51
2023/07/05 01:36:51;;;;;;;0.80;0.40;;;19.70;1.00;;;;;;5138373;27;20826;-52
2023/07/05 01:39:18;;;;;;;1.13;0.40;;;19.60;1.00;;;;;;5137626;27;20414;-51
2023/07/05 01:41:46;;;;;;;0.75;0.50;;;19.60;1.00;;;;;;5137664;27;20414;-54
2023/07/05 01:44:15;;;;;;;0.70;0.40;;;19.50;99.90;;;;;;5137379;27;20723;-49
2023/07/05 01:46:47;;;;;;;1.33;0.43;;;19.60;1.00;;;;;;5137723;27;20437;-53
2023/07/05 01:49:31;;;;;;;0.70;0.40;;;19.60;1.00;;;;;;5137809;27;20449;-54
2023/07/05 01:52:03;;;;;;;0.70;0.50;;;19.60;99.90;;;;;;5137313;27;20436;-51
2023/07/05 01:54:37;;;;;;;0.70;0.40;;;19.50;1.00;;;;;;5137124;27;20515;-50
2023/07/05 01:57:09;;;;;;;0.80;0.50;;;19.60;1.00;;;;;;5137160;27;20422;-52
2023/07/05 01:59:42;;;;;;;1.30;0.40;;;19.60;99.90;;;;;;5137336;27;20411;-51
2023/07/05 02:02:11;;;;;;;0.90;0.50;;;19.50;99.90;;;;;;5135923;27;20518;-53
2023/07/05 02:04:40;;;;;;;0.88;0.40;;;19.50;1.00;;;;;;5136036;28;20509;-50
2023/07/05 02:07:08;;;;;;;0.90;0.40;;;19.50;1.00;;;;;;5136488;28;20849;-50
2023/07/05 02:09:38;;;;;;;0.73;0.40;;;19.50;1.00;;;;;;5135874;27;20818;-53
2023/07/05 02:12:06;;;;;;;0.70;0.40;;;19.50;99.90;;;;;;5135921;28;20407;-51
2023/07/05 02:14:34;;;;;;;0.90;0.40;;;19.60;99.90;;;;;;5135354;28;20426;-50
2023/07/05 02:17:01;;;;;;;0.70;0.40;;;19.50;1.00;;;;;;5135177;28;20410;-54
2023/07/05 02:19:28;;;;;;;0.70;0.40;;;19.50;1.00;;;;;;5136143;28;20465;-52
2023/07/05 02:21:57;;;;;;;0.90;0.50;;;19.50;1.00;;;;;;5136000;28;20445;-52
2023/07/05 02:24:24;;;;;;;0.70;0.40;;;19.50;1.00;;;;;;5135484;28;20483;-53
2023/07/05 02:26:55;;;;;;;0.70;0.40;;;19.70;99.90;;;;;;5135938;28;20458;-52
2023/07/05 02:29:22;;;;;;;0.60;0.40;;;19.70;1.00;;;;;;5136412;28;20433;-50
2023/07/05 02:31:49;;;;;;;0.73;0.40;;;19.80;1.00;;;;;;5135819;28;20433;-52
2023/07/05 02:34:16;;;;;;;0.60;0.40;;;19.80;1.00;;;;;;5135593;28;20433;-52
2023/07/05 02:36:43;;;;;;;1.02;0.40;;;19.90;1.00;;;;;;5135493;28;20425;-53
2023/07/05 02:39:12;;;;;;;0.60;0.30;;;19.90;1.00;;;;;;5136143;28;20423;-49
2023/07/05 02:41:39;;;;;;;0.90;0.40;;;19.90;99.90;;;;;;5135821;28;20418;-51
2023/07/05 02:44:07;;;;;;;0.60;0.40;;;19.90;1.00;;;;;;5135611;28;20422;-47
2023/07/05 02:46:35;;;;;;;0.52;0.30;;;19.90;99.90;;;;;;5135120;28;20426;-52
2023/07/05 02:49:03;;;;;;;0.80;0.40;;;19.90;1.00;;;;;;5135575;28;20426;-53
2023/07/05 02:51:32;;;;;;;0.60;0.40;;;19.80;1.00;;;;;;5135144;27;20529;-53
2023/07/05 02:53:59;;;;;;;0.77;0.40;;;19.60;1.00;;;;;;5135431;28;20462;-52
2023/07/05 02:56:27;;;;;;;0.90;0.40;;;19.50;1.00;;;;;;5135258;28;20449;-48
2023/07/05 02:58:54;;;;;;;0.57;0.40;;;19.50;1.00;;;;;;5135100;27;20426;-51
2023/07/05 03:01:21;;;;;;;0.70;0.40;;;19.40;1.00;;;;;;5060840;27;2089530;-49
2023/07/05 03:03:49;;;;;;;1.20;0.40;;;19.30;1.00;;;;;;5135786;27;20434;-53
2023/07/05 03:06:16;;;;;;;0.70;0.40;;;19.30;1.00;;;;;;5135783;27;20419;-54
2023/07/05 03:08:43;;;;;;;0.60;0.40;;;19.30;1.00;;;;;;5136417;27;20426;-51
2023/07/05 03:11:10;;;;;;;1.00;0.40;;;19.20;1.00;;;;;;5136098;27;20722;-52
2023/07/05 03:13:38;;;;;;;1.00;0.40;;;19.10;1.00;;;;;;5135418;27;20426;-51
2023/07/05 03:16:07;;;;;;;1.30;0.40;;;19.10;1.00;;;;;;5135970;27;20433;-51
2023/07/05 03:18:34;;;;;;;1.00;0.40;;;19.00;1.00;;;;;;5133986;27;20853;-52
2023/07/05 03:21:01;;;;;;;0.80;0.50;;;19.00;1.00;;;;;;5134579;27;20417;-49
2023/07/05 03:23:29;;;;;;;1.10;0.50;;;19.10;1.00;;;;;;5135211;28;20469;-52
2023/07/05 03:25:57;;;;;;;0.70;0.40;;;19.30;1.00;;;;;;5135854;28;20826;-48
2023/07/05 03:28:25;;;;;;;1.10;0.40;;;19.30;1.00;;;;;;5135659;28;20718;-52
2023/07/05 03:30:59;;;;;;;0.90;0.40;;;19.30;1.00;;;;;;5136250;28;20814;-52
2023/07/05 03:33:27;;;;;;;0.60;0.40;;;19.40;1.00;;;;;;5135640;28;20426;-50
2023/07/05 03:35:55;;;;;;;0.60;0.30;;;19.40;1.00;;;;;;5134631;28;20484;-49
2023/07/05 03:38:25;;;;;;;0.70;0.40;;;19.50;1.00;;;;;;5135682;28;20809;-47
2023/07/05 03:41:02;;;;;;;1.20;0.40;;;19.40;1.00;;;;;;5136119;28;20431;-49
2023/07/05 03:43:32;;;;;;;0.68;0.40;;;19.30;1.00;;;;;;5135570;28;20426;-51
2023/07/05 03:46:01;;;;;;;0.70;0.40;;;19.30;1.00;;;;;;5135466;27;20458;-52
2023/07/05 03:48:30;;;;;;;0.50;0.30;;;19.20;1.00;;;;;;5135400;28;20520;-49
2023/07/05 03:50:58;;;;;;;0.52;0.35;;;19.20;1.00;;;;;;5135572;28;20414;-52
2023/07/05 03:53:26;;;;;;;0.60;0.40;;;19.10;1.00;;;;;;5135495;28;20441;-48
2023/07/05 03:55:53;;;;;;;1.00;0.40;;;19.20;1.00;;;;;;5135414;28;20430;-51
2023/07/05 03:58:21;;;;;;;0.63;0.40;;;19.10;1.00;;;;;;5135505;28;20449;-50
2023/07/05 04:00:48;;;;;;;0.60;0.40;;;19.10;1.00;;;;;;5135287;27;20723;-50
2023/07/05 04:03:16;;;;;;;1.10;0.40;;;19.10;1.00;;;;;;5134531;28;20444;-53
2023/07/05 04:05:43;;;;;;;1.70;0.40;;;19.00;1.00;;;;;;5134774;28;20413;-51
2023/07/05 04:08:10;;;;;;;0.70;0.40;;;18.90;1.00;;;;;;5135637;28;20414;-53
2023/07/05 04:10:37;;;;;;;0.70;0.40;;;18.80;1.00;;;;;;5135840;28;20419;-52
2023/07/05 04:13:04;;;;;;;0.80;0.40;;;18.80;1.00;;;;;;5134855;28;20437;-51
2023/07/05 04:15:32;;;;;;;0.70;0.40;;;18.90;1.00;;;;;;5133802;28;20429;-51
2023/07/05 04:17:59;;;;;;;0.70;0.40;;;18.90;1.00;;;;;;5133703;28;20411;-51
2023/07/05 04:20:30;;;;;;;2.20;0.40;;;18.80;1.00;;;;;;5133046;28;20434;-52
2023/07/05 04:22:59;;;;;;;0.68;0.40;;;18.70;1.00;;;;;;5133529;28;20449;-51
2023/07/05 04:25:26;;;;;;;0.70;0.40;;;18.60;1.00;;;;;;5133568;28;20426;-51
2023/07/05 04:27:53;;;;;;;2.90;0.50;;;18.60;1.00;;;;;;5129968;28;20418;-53
2023/07/05 04:30:20;;;;;;;0.75;0.40;;;18.70;1.00;;;;;;5133282;28;20836;-50
2023/07/05 04:32:47;;;;;;;0.60;0.40;;;18.70;1.00;;;;;;5136418;27;20414;-49
2023/07/05 04:35:15;;;;;;;1.50;0.40;;;18.70;1.00;;;;;;5137758;27;20849;-54
2023/07/05 04:37:43;;;;;;;0.80;0.40;;;18.70;1.00;;;;;;5138256;27;20706;-52
2023/07/05 04:40:11;;;;;;;0.90;0.40;;;18.70;1.00;;;;;;5137252;27;20482;-51
2023/07/05 04:42:38;;;;;;;0.70;0.50;;;18.60;1.00;;;;;;5133890;27;20422;-49
2023/07/05 04:45:06;;;;;;;1.60;0.40;;;18.60;1.00;;;;;;5134228;27;20418;-54
2023/07/05 04:47:33;;;;;;;0.95;0.40;;;18.70;1.00;;;;;;5134516;27;20425;-49
2023/07/05 04:50:00;;;;;;;0.60;0.38;;;18.60;1.00;;;;;;5135539;27;20427;-50
2023/07/05 04:52:27;;;;;;;0.90;0.70;;;18.60;1.00;;;;;;5135759;27;20422;-52
2023/07/05 04:54:56;;;;;;;1.40;0.50;;;18.50;1.00;;;;;;5134101;27;20431;-46
2023/07/05 04:57:23;;;;;;;1.30;0.40;;;18.60;1.00;;;;;;5134591;27;20411;-49
2023/07/05 04:59:51;;;;;;;0.63;0.40;;;18.60;1.00;;;;;;5136260;27;20462;-50
2023/07/05 05:02:19;;;;;;;0.73;0.40;;;18.60;1.00;;;;;;5133857;27;20426;-52
2023/07/05 05:04:46;;;;;;;1.80;0.40;;;18.60;1.00;;;;;;5133243;27;20710;-51
2023/07/05 05:07:13;;;;;;;0.70;0.40;;;18.70;1.00;;;;;;5134793;27;20467;-50
2023/07/05 05:09:41;;;;;;;0.60;0.40;;;18.80;1.00;;;;;;5135702;27;20746;-53
2023/07/05 05:12:10;;;;;;;0.60;0.40;;;18.80;1.00;;;;;;5135237;27;20426;-47
2023/07/05 05:14:37;;;;;;;1.40;0.40;;;18.80;1.00;;;;;;5134628;27;20418;-54
2023/07/05 05:17:04;;;;;;;0.60;0.40;;;18.80;1.00;;;;;;5134943;27;20414;-50
2023/07/05 05:19:31;;;;;;;0.70;0.45;;;18.90;1.00;;;;;;5136414;27;20430;-51
2023/07/05 05:21:58;;;;;;;0.93;0.40;;;18.90;1.00;;;;;;5136022;27;20846;-48
2023/07/05 05:24:25;;;;;;;0.50;0.40;;;18.90;1.00;;;;;;5136754;27;20423;-48
2023/07/05 05:26:54;;;;;;;0.80;0.40;;;18.90;1.00;;;;;;5137004;27;20692;-52
2023/07/05 05:29:23;;;;;;;0.90;0.40;;;19.00;1.00;;;;;;5135582;27;20533;-51
2023/07/05 05:31:50;;;;;;;0.70;0.40;;;19.20;1.00;;;;;;5133414;27;20712;-51
2023/07/05 05:34:17;;;;;;;1.10;0.40;;;19.40;1.00;;;;;;5133146;27;20426;-51
2023/07/05 05:36:44;;;;;;;0.80;0.40;;;19.30;1.00;;;;;;5133814;27;20429;-52
2023/07/05 05:39:11;;;;;;;0.80;0.40;;;19.30;1.00;;;;;;5133382;27;20410;-47
2023/07/05 05:41:39;;;;;;;0.70;0.40;;;19.30;1.00;;;;;;5134816;27;20709;-48
2023/07/05 05:44:06;;;;;;;0.60;0.40;;;19.30;1.00;;;;;;5133263;27;20735;-48
2023/07/05 05:46:34;;;;;;;1.25;0.40;;;19.40;1.00;;;;;;5133209;27;20575;-47
2023/07/05 05:49:02;;;;;;;0.60;0.40;;;19.40;1.00;;;;;;5133417;27;20854;-48
2023/07/05 05:51:29;;;;;;;0.60;0.30;;;19.50;1.00;;;;;;5135087;27;20423;-48
2023/07/05 05:53:56;;;;;;;0.50;0.30;;;19.70;1.00;;;;;;5133883;27;20709;-50
2023/07/05 05:56:23;;;;;;;0.60;0.30;;;19.80;1.00;;;;;;5132960;27;20695;-49
2023/07/05 05:58:50;;;;;;;0.90;0.40;;;20.00;1.00;;;;;;5133916;27;20418;-50
2023/07/05 06:01:19;;;;;;;1.10;0.50;;;20.20;1.00;;;;;;5134997;27;20426;-46
2023/07/05 06:03:48;;;;;;;1.50;0.50;;;20.20;1.00;;;;;;5133094;27;20778;-50
2023/07/05 06:06:15;;;;;;;0.80;0.50;;;20.40;1.00;;;;;;5130587;27;20414;-50
2023/07/05 06:08:42;;;;;;;0.77;0.50;;;20.50;1.00;;;;;;5129293;27;20522;-53
2023/07/05 06:11:09;;;;;;;0.70;0.40;;;20.60;1.00;;;;;;5131572;27;20449;-49
2023/07/05 06:13:36;;;;;;;0.70;0.40;;;20.60;1.00;;;;;;5130154;27;20437;-47
2023/07/05 06:16:05;;;;;;;0.70;0.40;;;20.70;99.90;;;;;;5127571;27;20423;-49
2023/07/05 06:18:32;;;;;;;0.60;0.40;;;20.80;1.00;;;;;;5132785;27;20714;-50
2023/07/05 06:21:01;;;;;;;0.60;0.40;;;20.90;99.90;;;;;;5133170;27;20433;-48
2023/07/05 06:23:28;;;;;;;1.02;0.43;;;21.00;99.90;;;;;;5131689;27;20817;-53
2023/07/05 06:25:55;;;;;;;0.60;0.30;;;21.10;99.90;;;;;;5132605;27;20697;-49
2023/07/05 06:28:22;;;;;;;0.70;0.40;;;21.30;1.00;;;;;;5129567;27;20434;-48
2023/07/05 06:30:49;;;;;;;1.05;0.43;;;21.30;99.90;;;;;;5132102;27;20433;-47
2023/07/05 06:33:16;;;;;;;0.80;0.40;;;21.60;1.00;;;;;;5131764;27;20441;-51
2023/07/05 06:35:49;;;;;;;0.95;0.60;;;21.90;1.00;;;;;;5127145;27;20430;-48
2023/07/05 06:38:17;;;;;;;1.90;0.40;;;21.90;99.90;;;;;;5133010;27;20550;-48
2023/07/05 06:40:50;;;;;;;0.90;0.40;;;21.80;1.00;;;;;;5132129;27;20441;-48
2023/07/05 06:43:17;;;;;;;0.65;0.40;;;21.50;99.90;;;;;;5125649;27;20445;-48
2023/07/05 06:45:48;;;;;;;0.80;0.40;;;21.10;1.00;;;;;;5132101;27;20417;-50
2023/07/05 06:48:15;;;;;;;0.70;0.40;;;20.80;1.00;;;;;;5115411;27;20432;-47
2023/07/05 06:50:42;;;;;;;0.88;0.50;;;20.60;1.00;;;;;;5112554;28;20909;-48
2023/07/05 06:53:10;;;;;;;1.43;0.40;;;20.50;1.00;;;;;;5111564;28;20416;-47
2023/07/05 06:55:41;;;;;;;2.20;0.50;;;20.40;9.90;;;;;;5111419;28;20685;-46
2023/07/05 06:58:08;;;;;;;0.88;0.50;;;20.20;40.40;;;;;;5120882;27;20430;-51
2023/07/05 07:00:35;;;;;;;1.00;0.45;;;20.10;57.40;;;;;;5130952;27;20726;-50
2023/07/05 07:03:03;;;;;;;0.80;0.50;;;20.00;58.20;;;;;;5131214;27;20454;-50
2023/07/05 07:05:31;;;;;;;0.90;0.45;;;19.80;87.50;;;;;;5132008;27;20453;-46
2023/07/05 07:07:58;;;;;;;0.80;0.50;;;19.70;99.90;;;;;;5112430;27;20842;-46
2023/07/05 07:10:25;;;;;;;1.10;0.60;;;19.50;99.90;;;;;;5133890;27;20453;-47
2023/07/05 07:12:54;;;;;;;1.10;0.50;;;19.30;99.90;;;;;;5132561;27;20422;-48
2023/07/05 07:15:21;;;;;;;1.10;0.50;;;19.30;99.90;;;;;;5129671;27;20423;-47
2023/07/05 07:17:49;;;;;;;2.90;0.50;;;19.20;99.90;;;;;;5132090;27;20419;-49
2023/07/05 07:20:16;;;;;;;0.80;0.50;;;19.20;99.90;;;;;;5130358;28;20822;-47
2023/07/05 07:22:44;;;;;;;0.90;0.50;;;19.10;99.90;;;;;;5132835;28;20410;-46
2023/07/05 07:25:11;;;;;;;0.85;0.40;;;19.30;99.90;;;;;;5129791;28;20430;-47
2023/07/05 07:27:38;;;;;;;1.02;0.50;;;19.50;99.90;;;;;;5130715;28;20434;-49
2023/07/05 07:30:11;;;;;;;0.90;0.50;;;19.80;99.90;;;;;;5132834;28;20427;-48
2023/07/05 07:32:38;;;;;;;0.90;0.50;;;19.90;99.90;;;;;;5131695;28;20873;-49
2023/07/05 07:35:06;;;;;;;0.60;0.40;;;20.10;99.90;;;;;;5133914;28;20422;-49
2023/07/05 07:37:33;;;;;;;0.80;0.40;;;20.10;99.90;;;;;;5120843;27;20442;-48
2023/07/05 07:40:01;;;;;;;0.80;0.40;;;20.10;66.00;;;;;;5132183;28;22152;-48
2023/07/05 07:42:28;;;;;;;0.70;0.40;;;20.20;95.20;;;;;;5124538;27;20430;-47
2023/07/05 07:44:55;;;;;;;0.70;0.40;;;20.50;65.10;;;;;;5132153;28;20419;-46
2023/07/05 07:47:24;;;;;;;0.80;0.45;;;20.60;42.90;;;;;;5129489;28;20441;-49
2023/07/05 07:49:51;;;;;;;0.70;0.30;;;20.80;22.10;;;;;;5132560;28;20760;-48
2023/07/05 07:52:19;;;;;;;0.70;0.40;;;20.80;16.70;;;;;;5134197;28;20793;-48
2023/07/05 07:54:46;;;;;;;1.35;0.40;;;20.50;1.00;;;;;;5134111;28;20495;-49
2023/07/05 07:57:13;;;;;;;0.60;0.30;;;20.30;15.00;;;;;;5132357;27;20838;-49
2023/07/05 07:59:41;;;;;;;0.60;0.30;;;20.30;23.80;;;;;;5132008;28;20433;-49
2023/07/05 08:02:12;;;;;;;0.50;0.30;;;20.40;1.00;;;;;;5130407;28;20711;-52
2023/07/05 08:04:46;;;;;;;0.50;0.20;;;20.50;1.00;;;;;;5132017;28;20422;-48
2023/07/05 08:07:14;;;;;;;1.20;0.30;;;20.30;1.00;;;;;;5132110;27;20441;-47
2023/07/05 08:09:41;;;;;;;0.50;0.20;;;20.10;1.00;;;;;;5128578;27;20860;-50
2023/07/05 08:12:09;;;;;;;0.43;0.30;;;20.00;1.00;;;;;;5134929;27;20503;-51
2023/07/05 08:14:37;;;;;;;0.40;0.23;;;19.90;1.00;;;;;;5135433;27;20694;-51
2023/07/05 08:17:04;;;;;;;0.57;0.30;;;19.80;1.00;;;;;;5134018;27;20930;-50
2023/07/05 08:19:31;;;;;;;0.65;0.30;;;19.90;1.00;;;;;;5135078;27;20422;-46
2023/07/05 08:22:00;;;;;;;0.70;0.50;;;19.90;1.00;;;;;;5135096;27;20434;-54
2023/07/05 08:24:27;;;;;;;0.60;0.30;;;19.70;1.00;;;;;;5135127;27;20423;-48
2023/07/05 08:26:55;;;;;;;3.10;0.43;;;19.30;1.00;;;;;;5135506;27;20426;-48
2023/07/05 08:29:23;;;;;;;0.50;0.30;;;19.40;23.40;;;;;;5136992;27;20430;-46
2023/07/05 08:31:51;;;;;;;0.50;0.30;;;19.30;14.10;;;;;;5134773;27;20438;-51
2023/07/05 08:34:18;;;;;;;0.80;0.30;;;19.00;4.30;;;;;;5134473;27;20435;-47
2023/07/05 08:36:46;;;;;;;0.70;0.30;;;19.10;28.40;;;;;;5134492;27;20429;-48
2023/07/05 08:39:15;;;;;;;0.70;0.30;;;19.20;14.60;;;;;;5137268;27;20415;-48
2023/07/05 08:41:57;;;;;;;0.57;0.30;;;19.30;21.20;;;;;;5136832;27;20417;-51
2023/07/05 08:44:36;;;;;;;0.60;0.30;;;19.20;1.00;;;;;;5132856;27;20517;-50
2023/07/05 08:47:11;;;;;;;0.60;0.32;;;19.40;1.00;;;;;;5135970;27;20437;-51
2023/07/05 08:49:41;;;;;;;0.50;0.30;;;19.50;1.00;;;;;;5130978;27;20434;-49
2023/07/05 08:52:16;;;;;;;0.50;0.30;;;19.90;1.00;;;;;;5135513;27;20426;-49
2023/07/05 08:54:45;;;;;;;0.80;0.30;;;20.00;1.00;;;;;;5134361;27;20944;-50
2023/07/05 08:57:23;;;;;;;0.60;0.30;;;20.20;1.00;;;;;;5115562;28;20432;-49
2023/07/05 08:59:54;;;;;;;0.60;0.30;;;20.00;1.00;;;;;;5135050;27;20434;-50
2023/07/05 09:02:22;;;;;;;1.80;0.40;;;20.10;1.00;;;;;;5134424;27;20738;-46
2023/07/05 09:04:50;;;;;;;0.70;0.40;;;20.10;1.00;;;;;;5134733;27;20590;-52
2023/07/05 09:07:24;;;;;;;0.50;0.30;;;20.30;1.00;;;;;;5134821;27;20429;-48
2023/07/05 09:09:58;;;;;;;0.50;0.30;;;20.20;1.00;;;;;;5132392;27;20744;-47
2023/07/05 09:12:34;;;;;;;0.50;0.30;;;20.50;1.00;;;;;;5133644;27;20438;-50
2023/07/05 09:15:13;;;;;;;0.90;0.40;;;20.40;1.00;;;;;;5135856;27;20759;-47
2023/07/05 09:17:51;;;;;;;0.60;0.30;;;20.60;1.00;;;;;;5132161;27;20474;-52
2023/07/05 09:20:31;;;;;;;0.70;0.40;;;20.80;1.00;;;;;;5115390;28;20751;-51
2023/07/05 09:23:02;;;;;;;0.98;0.50;;;20.80;99.90;;;;;;5127660;27;20442;-50
2023/07/05 09:25:32;;;;;;;0.80;0.40;;;21.00;1.00;;;;;;5132716;27;20913;-47
2023/07/05 09:28:10;;;;;;;0.70;0.40;;;21.00;99.90;;;;;;5133834;27;20426;-49
2023/07/05 09:30:37;;;;;;;0.75;0.40;;;21.00;1.00;;;;;;5135233;27;20414;-48
2023/07/05 09:33:11;;;;;;;0.70;0.40;;;21.20;1.00;;;;;;5134923;27;20415;-51
2023/07/05 09:35:42;;;;;;;0.70;0.40;;;21.40;1.00;;;;;;5132930;27;20498;-50
2023/07/05 09:38:16;;;;;;;0.60;0.40;;;21.50;1.00;;;;;;5135468;27;20465;-51
2023/07/05 09:40:48;;;;;;;0.80;0.40;;;21.60;99.90;;;;;;5131321;27;20445;-53
2023/07/05 09:43:28;;;;;;;0.80;0.40;;;21.60;99.90;;;;;;5132087;27;20866;-53
2023/07/05 09:45:55;;;;;;;0.70;0.40;;;21.80;1.00;;;;;;5135196;27;20462;-50
2023/07/05 09:48:22;;;;;;;1.20;0.50;;;22.10;1.00;;;;;;5133478;27;20434;-52
2023/07/05 09:50:52;;;;;;;0.80;0.43;;;21.80;1.00;;;;;;5134953;27;20410;-51
2023/07/05 09:53:36;;;;;;;2.08;0.50;;;21.70;1.00;;;;;;5114895;28;20424;-52
2023/07/05 09:56:08;;;;;;;0.90;0.40;;;22.00;1.00;;;;;;5113992;28;20442;-52
2023/07/05 09:58:36;;;;;;;0.90;0.50;;;22.40;1.00;;;;;;5125016;27;20438;-50
2023/07/05 10:01:05;;;;;;;0.70;0.40;;;22.60;99.90;;;;;;5127760;27;20464;-53
2023/07/05 10:03:37;;;;;;;1.00;0.50;;;22.70;99.90;;;;;;5132190;27;20446;-51
2023/07/05 10:06:10;;;;;;;0.80;0.50;;;22.80;99.90;;;;;;5133277;27;20410;-50
2023/07/05 10:08:45;;;;;;;1.27;0.55;;;23.10;37.20;;;;;;5131282;27;20440;-48
2023/07/05 10:11:22;;;;;;;1.20;0.60;;;23.50;1.00;;;;;;5132341;27;20571;-54
2023/07/05 10:14:12;;;;;;;1.83;0.50;;;23.90;1.00;;;;;;5132047;27;20474;-54
2023/07/05 10:17:04;;;;;;;1.00;0.50;;;23.80;1.00;;;;;;5133016;27;20492;-49
2023/07/05 10:19:33;;;;;;;0.82;0.50;;;23.90;1.00;;;;;;5127404;27;20524;-50
2023/07/05 10:22:06;;;;;;;0.90;0.40;;;23.90;1.00;;;;;;5131600;27;20438;-54
2023/07/05 10:24:42;;;;;;;0.90;0.60;;;24.10;1.00;;;;;;5133367;27;20430;-49
2023/07/05 10:27:22;;;;;;;0.95;0.60;;;23.90;1.00;;;;;;5133593;27;20760;-49
2023/07/05 10:29:51;;;;;;;0.90;0.50;;;23.70;1.00;;;;;;5128323;27;20418;-50
2023/07/05 10:32:20;;;;;;;1.00;0.50;;;23.60;1.00;;;;;;5130716;27;20487;-52
2023/07/05 10:34:50;;;;;;;0.80;0.50;;;23.70;1.00;;;;;;5132836;27;20704;-52
2023/07/05 10:37:32;;;;;;;1.08;0.50;;;24.10;1.00;;;;;;5129181;27;20483;-51
2023/07/05 10:40:10;;;;;;;1.05;0.50;;;24.50;1.00;;;;;;5134645;27;20419;-49
2023/07/05 10:42:41;;;;;;;1.35;0.50;;;24.80;1.00;;;;;;5132933;27;20457;-51
2023/07/05 10:45:15;;;;;;;0.70;0.50;;;25.00;1.00;;;;;;5132088;27;20841;-53
2023/07/05 10:47:43;;;;;;;1.73;0.55;;;24.60;1.00;;;;;;5132623;27;20433;-49
2023/07/05 10:50:11;;;;;;;1.17;0.50;;;24.60;1.00;;;;;;5129763;27;20430;-51
2023/07/05 10:52:44;;;;;;;1.00;0.60;;;24.90;1.00;;;;;;5132218;27;20445;-52
2023/07/05 10:55:15;;;;;;;0.80;0.60;;;24.80;1.00;;;;;;5133259;27;20438;-51
2023/07/05 10:57:49;;;;;;;0.80;0.50;;;25.10;1.00;;;;;;5130245;27;20430;-47
2023/07/05 11:00:37;;;;;;;1.00;0.60;;;25.60;1.00;;;;;;5130614;27;20517;-52
2023/07/05 11:03:11;;;;;;;2.13;0.70;;;26.00;1.00;;;;;;5134042;27;20407;-49
2023/07/05 11:05:43;;;;;;;1.45;0.60;;;26.30;1.00;;;;;;5133325;27;20849;-52
2023/07/05 11:08:17;;;;;;;0.93;0.50;;;26.20;1.00;;;;;;5131935;27;20838;-51
2023/07/05 11:10:46;;;;;;;1.88;0.88;;;26.40;1.00;;;;;;5132528;27;20446;-49
2023/07/05 11:13:17;;;;;;;1.52;0.50;;;26.90;1.00;;;;;;5133749;27;20438;-52
2023/07/05 11:15:46;;;;;;;1.00;0.50;;;26.30;1.00;;;;;;5134054;27;20479;-51
2023/07/05 11:18:16;;;;;;;0.80;0.50;;;25.90;1.00;;;;;;5130837;27;20442;-49
2023/07/05 11:20:51;;;;;;;0.95;0.50;;;26.20;1.00;;;;;;5131356;28;20777;-53
2023/07/05 11:23:55;;;;;;;0.90;0.55;;;26.50;1.00;;;;;;5131119;28;20762;-50
2023/07/05 11:26:42;;;;;;;1.17;0.60;;;27.10;1.00;;;;;;5099602;28;20423;-51
2023/07/05 11:29:47;;;;;;;1.17;0.50;;;27.40;1.00;;;;;;5129937;28;20631;-50
2023/07/05 11:32:15;;;;;;;1.80;0.60;;;27.70;1.00;;;;;;5131005;28;20475;-52
2023/07/05 11:34:48;;;;;;;0.90;0.50;;;27.30;1.00;;;;;;5111178;28;20416;-50
2023/07/05 11:37:43;;;;;;;1.48;0.50;;;27.00;1.00;;;;;;5116794;28;20427;-49
2023/07/05 11:41:01;;;;;;;0.80;0.50;;;26.60;1.00;;;;;;5129169;27;20442;-52
2023/07/05 11:43:45;;;;;;;1.05;0.40;;;27.30;1.00;;;;;;5133591;27;20469;-51
2023/07/05 11:46:38;;;;;;;1.10;0.40;;;27.20;1.00;;;;;;5134562;27;20756;-53
2023/07/05 11:49:34;;;;;;;1.20;0.50;;;26.90;1.00;;;;;;5116050;28;20777;-50
2023/07/05 11:52:14;;;;;;;1.00;0.50;;;26.80;1.00;;;;;;5125200;27;20430;-50
2023/07/05 11:54:54;;;;;;;0.80;0.52;;;27.60;1.00;;;;;;5134659;27;20794;-52
2023/07/05 11:57:22;;;;;;;1.50;0.50;;;27.50;1.00;;;;;;5132494;27;20430;-52
2023/07/05 11:59:56;;;;;;;0.90;0.50;;;26.90;1.00;;;;;;5135466;27;20434;-52
2023/07/05 12:02:37;;;;;;;1.00;0.50;;;26.80;1.00;;;;;;5135256;27;20442;-53
2023/07/05 12:05:11;;;;;;;1.17;0.50;;;27.10;1.00;;;;;;5133678;27;20609;-53
2023/07/05 12:07:40;;;;;;;1.20;0.50;;;27.10;1.00;;;;;;5135025;27;20426;-48
2023/07/05 12:10:10;;;;;;;0.93;0.50;;;27.40;1.00;;;;;;5133960;27;20438;-52
2023/07/05 12:12:41;;;;;;;0.70;0.40;;;27.30;1.00;;;;;;5131371;27;20525;-51
2023/07/05 12:15:12;;;;;;;0.70;0.40;;;26.90;1.00;;;;;;5127058;27;20883;-56
2023/07/05 12:17:40;;;;;;;1.00;0.50;;;26.20;1.00;;;;;;5133290;27;20937;-51
2023/07/05 12:20:22;;;;;;;0.80;0.43;;;25.90;1.00;;;;;;5122905;27;20446;-51
2023/07/05 12:22:50;;;;;;;0.80;0.50;;;26.70;1.00;;;;;;5117323;27;20592;-50
2023/07/05 12:25:17;;;;;;;0.90;0.47;;;26.90;1.00;;;;;;5132781;27;20433;-53
2023/07/05 12:27:45;;;;;;;0.80;0.40;;;27.30;1.00;;;;;;5133174;27;20434;-50
2023/07/05 12:30:18;;;;;;;0.70;0.40;;;27.70;1.00;;;;;;5134980;27;20418;-48
2023/07/05 12:32:49;;;;;;;0.80;0.40;;;27.50;1.00;;;;;;5113708;28;20415;-49
2023/07/05 12:35:22;;;;;;;1.70;0.40;;;27.30;1.00;;;;;;5115773;28;20511;-51
2023/07/05 12:37:50;;;;;;;0.80;0.40;;;27.30;1.00;;;;;;5118232;27;20434;-56
2023/07/05 12:40:30;;;;;;;0.70;0.40;;;27.20;1.00;;;;;;5135079;27;20435;-52
2023/07/05 12:42:59;;;;;;;0.80;0.40;;;27.10;1.00;;;;;;5134308;27;20453;-52
2023/07/05 12:45:29;;;;;;;0.70;0.40;;;26.80;1.00;;;;;;5133008;27;20437;-51
2023/07/05 12:47:57;;;;;;;1.30;0.30;;;26.50;1.00;;;;;;5132890;27;21077;-52
2023/07/05 12:50:28;;;;;;;0.80;0.40;;;26.70;1.00;;;;;;5127723;27;20535;-52
2023/07/05 12:53:04;;;;;;;1.40;0.30;;;26.40;1.00;;;;;;5130464;27;20426;-50
2023/07/05 12:55:33;;;;;;;0.65;0.40;;;26.80;1.00;;;;;;5131573;27;20746;-50
2023/07/05 12:58:03;;;;;;;0.60;0.40;;;27.10;1.00;;;;;;5134286;27;20738;-51
2023/07/05 13:00:30;;;;;;;0.70;0.40;;;27.30;1.00;;;;;;5133251;27;21065;-52
2023/07/05 13:03:00;;;;;;;0.80;0.40;;;27.60;1.00;;;;;;5135096;27;20471;-50
2023/07/05 13:05:29;;;;;;;0.60;0.40;;;28.10;1.00;;;;;;5134134;27;20516;-52
2023/07/05 13:08:01;;;;;;;0.80;0.40;;;28.40;1.00;;;;;;5133387;27;20422;-51
2023/07/05 13:10:30;;;;;;;0.60;0.40;;;28.30;1.00;;;;;;5136347;27;20691;-49
2023/07/05 13:12:59;;;;;;;0.60;0.35;;;28.30;1.00;;;;;;5136631;27;20423;-53
2023/07/05 13:15:34;;;;;;;1.00;0.30;;;28.20;1.00;;;;;;5134938;27;20497;-50
2023/07/05 13:18:28;;;;;;;0.63;0.40;;;28.10;1.00;;;;;;5151311;27;20863;-53
2023/07/05 13:21:13;;;;;;;1.10;0.37;;;27.40;1.00;;;;;;5157812;27;20419;-50
2023/07/05 13:23:45;;;;;;;1.30;0.32;;;27.50;1.00;;;;;;5156485;27;20773;-52